METARs

EEEI - Ämari Air Base

EEEI 191650Z 23007KT CAVOK 24/10 Q1014 NOSIG

EEKA - Kärdla

EEKA 191450Z 22006KT 150V290 CAVOK 26/08 Q1014

EEKE - Kuressaare

EEKE 192150Z AUTO 00000KT 9999NDV NCD 14/13 Q1013

EEPU - Pärnu

EEPU 191250Z 21008KT 160V240 CAVOK 24/15 Q1016

EETN - Lennart Meri Tallinn

EETN 192150Z 00000KT CAVOK 15/12 Q1014 NOSIG

EETU - Tartu

EETU 192150Z 25003KT CAVOK 16/14 Q1014

Sign In

ATC Booking

currently no ATC Bookings...